Slavutich-16 — ENYT — position and weather

sailwx.info

Track history (hours):
 
Tides and Currents Weather Stations Pressure Air Temp Water Temp Dewpoint Dewpoint Depression Visibility Wind Speed Wind Dir Waves Ship Positions

Slavutich-16

Last reported at 2017-Oct-25 11:13 UTC. Time now 2017-Nov-19 05:06 UTC.
Position N 45°37' E 036°45'.
Warning: this ship's position is 24 days out of date.

Length 108 m; draft 2.4 m.

Type: Cargo ship. MMSI: 272046000.

Date/timePositionNaut miles runAvg speedWind from/ knotsBaromVisibWave heightAir tempDewpointWater temp
2017-Oct-25 11:13N 45°37' E 036°45'1 6.0
2017-Oct-25 11:00N 45°35' E 036°44'3 6.0
2017-Oct-25 10:30N 45°32' E 036°44'3 6.1
2017-Oct-25 10:00N 45°29' E 036°43'3 6.2
2017-Oct-25 09:30N 45°27' E 036°42'3 6.0
2017-Oct-25 09:00N 45°24' E 036°40'3 5.5
2017-Oct-25 08:30N 45°21' E 036°39'2 4.8
2017-Oct-25 08:00N 45°20' E 036°36'3 5.1
2017-Oct-25 07:30N 45°19' E 036°32'3 5.4
2017-Oct-25 07:00N 45°18' E 036°29'3 5.9
2017-Oct-25 06:29N 45°15' E 036°28'3 6.0
2017-Oct-25 05:57N 45°11' E 036°29'  
2017-Oct-20 21:03N 45°32' E 031°52'0 7.3
2017-Oct-20 21:00N 45°32' E 031°52'8 7.3
2017-Oct-20 19:53N 45°37' E 031°43'60 6.9
2017-Oct-20 11:14N 46°19' E 030°42'1 3.6
2017-Oct-20 10:57N 46°19' E 030°40'0 0.0
2017-Oct-19 20:23N 46°19' E 030°40'3 4.4
2017-Oct-19 19:41N 46°19' E 030°45'1 6.0
2017-Oct-19 19:30N 46°18' E 030°46'3 6.0
2017-Oct-19 19:00N 46°18' E 030°51'3 6.0
2017-Oct-19 18:30N 46°17' E 030°55'4 5.9
2017-Oct-19 17:55N 46°17' E 030°60'3 6.0
2017-Oct-19 17:27N 46°17' E 031°04'3 5.9
2017-Oct-19 17:00N 46°18' E 031°08'3 6.1
2017-Oct-19 16:30N 46°18' E 031°12'3 6.1
2017-Oct-19 16:00N 46°18' E 031°16'3 6.1
2017-Oct-19 15:26N 46°17' E 031°21'3 6.1
2017-Oct-19 15:00N 46°16' E 031°25'3 5.9
2017-Oct-19 14:30N 46°15' E 031°29'3 5.4
2017-Oct-19 14:01N 46°13' E 031°31'3 5.8
2017-Oct-19 13:30N 46°10' E 031°32'3 5.8
2017-Oct-19 13:00N 46°07' E 031°34'3 5.9
2017-Oct-19 12:31N 46°04' E 031°35'3 6.0
2017-Oct-19 11:59N 46°01' E 031°37'3 5.9
2017-Oct-19 11:30N 45°59' E 031°38'3 5.8
2017-Oct-19 11:00N 45°56' E 031°40'3 5.9
2017-Oct-19 10:27N 45°53' E 031°41'205 4.6
2017-Oct-17 13:42N 45°11' E 036°28'1 6.2
2017-Oct-17 13:30N 45°13' E 036°28'3 6.1
2017-Oct-17 13:00N 45°16' E 036°28'3 5.6
2017-Oct-17 12:30N 45°18' E 036°30'3 5.5
2017-Oct-17 12:00N 45°19' E 036°33'3 5.3
2017-Oct-17 11:30N 45°20' E 036°36'2 5.0
2017-Oct-17 11:00N 45°22' E 036°39'3 5.8
2017-Oct-17 10:30N 45°25' E 036°41'2 5.0
2017-Oct-17 10:01N 45°27' E 036°40'3 5.7
2017-Oct-17 09:31N 45°30' E 036°38'3 0.3
2017-Oct-16 22:57N 45°32' E 036°38'  
Track history (hours):
 
Tides and Currents Weather Stations Pressure Air Temp Water Temp Dewpoint Dewpoint Depression Visibility Wind Speed Wind Dir Waves Ship Positions

Slavutich-16

Last reported at 2017-Oct-25 11:13 UTC. Time now 2017-Nov-19 05:06 UTC.
Position N 45°37' E 036°45'.
Warning: this ship's position is 24 days out of date.

Length 108 m; draft 2.4 m.

Type: Cargo ship. MMSI: 272046000.

Date/timePositionNaut miles runAvg speedWind from/ knotsBaromVisibWave heightAir tempDewpointWater temp
2017-Oct-25 11:13N 45°37' E 036°45'1 6.0
2017-Oct-25 11:00N 45°35' E 036°44'3 6.0
2017-Oct-25 10:30N 45°32' E 036°44'3 6.1
2017-Oct-25 10:00N 45°29' E 036°43'3 6.2
2017-Oct-25 09:30N 45°27' E 036°42'3 6.0
2017-Oct-25 09:00N 45°24' E 036°40'3 5.5
2017-Oct-25 08:30N 45°21' E 036°39'2 4.8
2017-Oct-25 08:00N 45°20' E 036°36'3 5.1
2017-Oct-25 07:30N 45°19' E 036°32'3 5.4
2017-Oct-25 07:00N 45°18' E 036°29'3 5.9
2017-Oct-25 06:29N 45°15' E 036°28'3 6.0
2017-Oct-25 05:57N 45°11' E 036°29'  
2017-Oct-20 21:03N 45°32' E 031°52'0 7.3
2017-Oct-20 21:00N 45°32' E 031°52'8 7.3
2017-Oct-20 19:53N 45°37' E 031°43'60 6.9
2017-Oct-20 11:14N 46°19' E 030°42'1 3.6
2017-Oct-20 10:57N 46°19' E 030°40'0 0.0
2017-Oct-19 20:23N 46°19' E 030°40'3 4.4
2017-Oct-19 19:41N 46°19' E 030°45'1 6.0
2017-Oct-19 19:30N 46°18' E 030°46'3 6.0
2017-Oct-19 19:00N 46°18' E 030°51'3 6.0
2017-Oct-19 18:30N 46°17' E 030°55'4 5.9
2017-Oct-19 17:55N 46°17' E 030°60'3 6.0
2017-Oct-19 17:27N 46°17' E 031°04'3 5.9
2017-Oct-19 17:00N 46°18' E 031°08'3 6.1
2017-Oct-19 16:30N 46°18' E 031°12'3 6.1
2017-Oct-19 16:00N 46°18' E 031°16'3 6.1
2017-Oct-19 15:26N 46°17' E 031°21'3 6.1
2017-Oct-19 15:00N 46°16' E 031°25'3 5.9
2017-Oct-19 14:30N 46°15' E 031°29'3 5.4
2017-Oct-19 14:01N 46°13' E 031°31'3 5.8
2017-Oct-19 13:30N 46°10' E 031°32'3 5.8
2017-Oct-19 13:00N 46°07' E 031°34'3 5.9
2017-Oct-19 12:31N 46°04' E 031°35'3 6.0
2017-Oct-19 11:59N 46°01' E 031°37'3 5.9
2017-Oct-19 11:30N 45°59' E 031°38'3 5.8
2017-Oct-19 11:00N 45°56' E 031°40'3 5.9
2017-Oct-19 10:27N 45°53' E 031°41'205 4.6
2017-Oct-17 13:42N 45°11' E 036°28'1 6.2
2017-Oct-17 13:30N 45°13' E 036°28'3 6.1
2017-Oct-17 13:00N 45°16' E 036°28'3 5.6
2017-Oct-17 12:30N 45°18' E 036°30'3 5.5
2017-Oct-17 12:00N 45°19' E 036°33'3 5.3
2017-Oct-17 11:30N 45°20' E 036°36'2 5.0
2017-Oct-17 11:00N 45°22' E 036°39'3 5.8
2017-Oct-17 10:30N 45°25' E 036°41'2 5.0
2017-Oct-17 10:01N 45°27' E 036°40'3 5.7
2017-Oct-17 09:31N 45°30' E 036°38'3 0.3
2017-Oct-16 22:57N 45°32' E 036°38'  

Dump ship's entire track history